Terminal Aerodrome Forecast
Issued by NWS

Home | Current Version | Previous Version | Text Only | Print | Product List | Glossary On
Versions: 1 2 3 4 5 6 7 8 9 10 11 12 13 14 15 16 17
000
FTUS41 KGYX 271126
TAFHIE
TAF
KHIE 271126Z 2712/2812 VRB03KT P6SM BKN060
      TEMPO 2715/2719 -SHRA
     FM271900 27008KT P6SM BKN050
     FM272300 VRB03KT P6SM SCT050
     FM280700 00000KT 2SM BR BKN002=

USA.gov is the U.S. government's official web portal to all federal, state and local government web resources and services.